Time;durP1;ratioP1;P1;durP2;ratioP2;P2;SDS_P1;SDS_P2;PMS_P1;PMS_P2;Temp;Humidity;BMP_temperature;BMP_pressure;BME280_temperature;BME280_humidity;BME280_pressure;Samples;Min_cycle;Max_cycle;Signal;HPM_P1;HPM_P2
2023/04/18 00:01:44;;;;;;;11.35;7.55;;;7.60;1.00;;;;;;4994061;28;20036;-68
2023/04/18 00:04:10;;;;;;;12.82;8.60;;;7.60;1.00;;;;;;4993843;28;20050;-67
2023/04/18 00:06:35;;;;;;;10.40;7.55;;;7.50;1.00;;;;;;4994404;28;20033;-68
2023/04/18 00:09:02;;;;;;;11.82;7.68;;;7.50;1.00;;;;;;4994064;28;20108;-68
2023/04/18 00:11:29;;;;;;;10.65;8.07;;;7.40;1.00;;;;;;4996281;28;20463;-67
2023/04/18 00:13:56;;;;;;;13.55;7.65;;;7.50;1.00;;;;;;4997580;28;20087;-67
2023/04/18 00:16:22;;;;;;;11.45;7.72;;;7.50;1.00;;;;;;4997004;28;20058;-69
2023/04/18 00:18:48;;;;;;;11.70;7.88;;;7.50;1.00;;;;;;4997699;28;20166;-68
2023/04/18 00:21:13;;;;;;;12.95;7.75;;;7.40;1.00;;;;;;4997435;28;20472;-68
2023/04/18 00:23:39;;;;;;;12.55;8.05;;;7.40;1.00;;;;;;4996953;28;20392;-68
2023/04/18 00:26:04;;;;;;;11.70;8.63;;;7.40;1.00;;;;;;4997688;28;20034;-68
2023/04/18 00:28:30;;;;;;;12.23;8.23;;;7.30;1.00;;;;;;4997513;28;20416;-68
2023/04/18 00:30:55;;;;;;;9.98;7.45;;;7.30;1.00;;;;;;4997582;28;20079;-68
2023/04/18 00:33:21;;;;;;;11.77;8.10;;;7.20;1.00;;;;;;4997209;28;20065;-68
2023/04/18 00:35:46;;;;;;;12.25;8.20;;;7.20;1.00;;;;;;4996919;28;20161;-68
2023/04/18 00:38:12;;;;;;;10.13;7.88;;;7.20;1.00;;;;;;4996893;28;20080;-68
2023/04/18 00:40:38;;;;;;;12.05;8.52;;;7.30;1.00;;;;;;4997299;28;20092;-68
2023/04/18 00:43:06;;;;;;;11.65;8.32;;;7.30;1.00;;;;;;4996985;28;20480;-67
2023/04/18 00:45:31;;;;;;;11.05;8.05;;;7.20;1.00;;;;;;4996705;28;20034;-68
2023/04/18 00:47:57;;;;;;;12.20;8.85;;;7.20;1.00;;;;;;4996893;28;20034;-68
2023/04/18 00:50:23;;;;;;;10.68;8.35;;;7.20;1.00;;;;;;4997128;28;20026;-68
2023/04/18 00:52:49;;;;;;;10.50;7.88;;;7.20;1.00;;;;;;4997185;28;20038;-67
2023/04/18 00:55:15;;;;;;;11.55;8.88;;;7.20;1.00;;;;;;4996734;28;20037;-68
2023/04/18 00:57:41;;;;;;;11.98;8.60;;;7.10;1.00;;;;;;4997059;28;20033;-68
2023/04/18 01:00:09;;;;;;;11.05;8.07;;;7.10;1.00;;;;;;4996950;28;20059;-68
2023/04/18 01:02:35;;;;;;;9.90;7.70;;;7.10;1.00;;;;;;4996256;28;20125;-67
2023/04/18 01:05:02;;;;;;;13.38;8.80;;;7.10;1.00;;;;;;4996504;28;20032;-68
2023/04/18 01:07:29;;;;;;;11.35;8.15;;;7.10;1.00;;;;;;4995922;28;20380;-67
2023/04/18 01:09:55;;;;;;;12.23;8.70;;;7.20;1.00;;;;;;4996624;28;20368;-68
2023/04/18 01:12:21;;;;;;;13.13;8.85;;;7.20;1.00;;;;;;4996702;28;20035;-68
2023/04/18 01:14:46;;;;;;;13.63;8.93;;;7.20;1.00;;;;;;4996697;28;20062;-68
2023/04/18 01:17:12;;;;;;;11.98;8.23;;;7.20;1.00;;;;;;4996575;28;20105;-67
2023/04/18 01:19:38;;;;;;;11.23;7.93;;;7.20;1.00;;;;;;4996048;28;20036;-67
2023/04/18 01:22:05;;;;;;;10.52;7.55;;;7.30;1.00;;;;;;4996567;28;20364;-68
2023/04/18 01:24:31;;;;;;;11.90;8.38;;;7.40;1.00;;;;;;4995651;28;20068;-68
2023/04/18 01:26:57;;;;;;;13.10;8.52;;;7.30;1.00;;;;;;4996141;28;20026;-67
2023/04/18 01:29:24;;;;;;;10.88;7.68;;;7.30;1.00;;;;;;4995916;28;20033;-68
2023/04/18 01:31:49;;;;;;;11.88;8.48;;;7.30;1.00;;;;;;4996394;28;20030;-67
2023/04/18 01:34:16;;;;;;;10.27;7.80;;;7.30;1.00;;;;;;4995803;28;20034;-67
2023/04/18 01:36:43;;;;;;;11.73;8.30;;;7.30;1.00;;;;;;4995964;28;20165;-67
2023/04/18 01:39:09;;;;;;;11.23;8.45;;;7.30;1.00;;;;;;4995774;28;20033;-67
2023/04/18 01:41:35;;;;;;;12.98;8.45;;;7.30;1.00;;;;;;4996288;28;20022;-67
2023/04/18 01:44:01;;;;;;;11.27;8.50;;;7.30;1.00;;;;;;4995923;28;20032;-68
2023/04/18 01:46:27;;;;;;;14.63;8.90;;;7.20;1.00;;;;;;4995649;28;20447;-67
2023/04/18 01:48:52;;;;;;;13.15;8.93;;;7.20;1.00;;;;;;4995250;28;20026;-68
2023/04/18 01:51:18;;;;;;;14.38;8.82;;;7.20;1.00;;;;;;4995546;28;20045;-68
2023/04/18 01:53:44;;;;;;;10.95;8.50;;;7.10;1.00;;;;;;4995598;28;20381;-69
2023/04/18 01:56:09;;;;;;;13.52;9.10;;;7.10;1.00;;;;;;4995635;28;20034;-68
2023/04/18 01:58:35;;;;;;;13.80;8.75;;;7.10;1.00;;;;;;4995846;28;20039;-67
2023/04/18 02:01:01;;;;;;;12.55;9.18;;;7.20;1.00;;;;;;4995768;28;20058;-67
2023/04/18 02:03:27;;;;;;;12.07;8.70;;;7.20;1.00;;;;;;4994982;28;20085;-67
2023/04/18 02:05:53;;;;;;;12.80;9.23;;;7.20;1.00;;;;;;4995766;28;20030;-67
2023/04/18 02:08:18;;;;;;;14.65;8.93;;;7.30;1.00;;;;;;4995644;28;20420;-67
2023/04/18 02:10:44;;;;;;;11.45;8.85;;;7.30;1.00;;;;;;4995674;28;20066;-67
2023/04/18 02:13:09;;;;;;;14.40;9.15;;;7.30;1.00;;;;;;4995391;28;20034;-68
2023/04/18 02:15:35;;;;;;;14.40;9.80;;;7.30;1.00;;;;;;4995352;28;20427;-67
2023/04/18 02:18:01;;;;;;;13.55;9.20;;;7.30;1.00;;;;;;4995582;28;20038;-67
2023/04/18 02:20:32;;;;;;;15.43;10.30;;;7.30;1.00;;;;;;4995403;28;20066;-67
2023/04/18 02:22:58;;;;;;;15.73;9.63;;;7.40;1.00;;;;;;4995503;28;20037;-67
2023/04/18 02:25:26;;;;;;;12.85;9.43;;;7.30;1.00;;;;;;4995099;28;20026;-67
2023/04/18 02:27:52;;;;;;;13.38;9.77;;;7.40;1.00;;;;;;4995404;28;20033;-67
2023/04/18 02:30:18;;;;;;;14.00;9.90;;;7.40;1.00;;;;;;4995115;28;20480;-67
2023/04/18 02:32:44;;;;;;;13.93;10.50;;;7.40;1.00;;;;;;4994672;28;20033;-68
2023/04/18 02:35:11;;;;;;;14.52;10.27;;;7.40;1.00;;;;;;4994781;28;20041;-68
2023/04/18 02:37:37;;;;;;;13.40;10.30;;;7.40;1.00;;;;;;4995248;28;20023;-67
2023/04/18 02:40:03;;;;;;;15.82;10.48;;;7.40;1.00;;;;;;4995280;28;20073;-68
2023/04/18 02:42:30;;;;;;;15.02;10.70;;;7.40;1.00;;;;;;4994268;28;20034;-67
2023/04/18 02:44:56;;;;;;;15.10;11.10;;;7.40;1.00;;;;;;4995192;28;20026;-67
2023/04/18 02:47:21;;;;;;;17.35;11.25;;;7.40;1.00;;;;;;4995154;28;20033;-67
2023/04/18 02:49:47;;;;;;;13.82;10.80;;;7.40;1.00;;;;;;4995074;28;20063;-67
2023/04/18 02:52:13;;;;;;;15.68;11.40;;;7.40;1.00;;;;;;4995062;28;20077;-67
2023/04/18 02:54:38;;;;;;;14.68;10.93;;;7.40;1.00;;;;;;4994647;28;20026;-67
2023/04/18 02:57:04;;;;;;;15.70;10.98;;;7.40;1.00;;;;;;4994956;28;20034;-67
2023/04/18 02:59:29;;;;;;;15.18;10.85;;;7.50;1.00;;;;;;4994714;28;20073;-67
2023/04/18 03:01:55;;;;;;;15.35;11.60;;;7.40;1.00;;;;;;4994348;28;20034;-68
2023/04/18 03:04:20;;;;;;;15.00;11.20;;;7.50;1.00;;;;;;4993644;28;20053;-67
2023/04/18 03:06:47;;;;;;;15.48;10.98;;;7.50;1.00;;;;;;4994283;28;20026;-68
2023/04/18 03:09:13;;;;;;;15.50;10.80;;;7.50;1.00;;;;;;4994556;28;20464;-67
2023/04/18 03:11:38;;;;;;;18.48;11.77;;;7.50;1.00;;;;;;4994098;28;20113;-67
2023/04/18 03:14:04;;;;;;;14.80;10.15;;;7.50;1.00;;;;;;4994223;28;20069;-68
2023/04/18 03:16:30;;;;;;;15.50;10.20;;;7.50;1.00;;;;;;4994793;28;20026;-69
2023/04/18 03:18:56;;;;;;;14.65;11.00;;;7.50;1.00;;;;;;4994236;28;20564;-68
2023/04/18 03:21:21;;;;;;;15.27;11.20;;;7.50;1.00;;;;;;4994593;28;20105;-67
2023/04/18 03:23:47;;;;;;;17.58;11.35;;;7.40;1.00;;;;;;4994246;28;20034;-68
2023/04/18 03:26:12;;;;;;;15.27;10.95;;;7.50;1.00;;;;;;4994302;28;20069;-67
2023/04/18 03:28:39;;;;;;;14.02;10.52;;;7.50;1.00;;;;;;4994689;28;20030;-68
2023/04/18 03:31:05;;;;;;;16.48;11.35;;;7.50;1.00;;;;;;4994137;28;20022;-68
2023/04/18 03:33:30;;;;;;;15.23;10.82;;;7.50;1.00;;;;;;4993649;28;20072;-67
2023/04/18 03:35:56;;;;;;;17.27;11.40;;;7.50;1.00;;;;;;4994297;28;20488;-67
2023/04/18 03:38:21;;;;;;;14.68;10.75;;;7.50;1.00;;;;;;4994710;28;20030;-68
2023/04/18 03:40:47;;;;;;;15.55;11.13;;;7.50;1.00;;;;;;4994372;28;20034;-67
2023/04/18 03:43:13;;;;;;;16.50;11.75;;;7.50;1.00;;;;;;4993351;28;20034;-67
2023/04/18 03:45:39;;;;;;;14.70;10.65;;;7.50;1.00;;;;;;4995663;28;20030;-68
2023/04/18 03:48:06;;;;;;;16.80;11.25;;;7.50;1.00;;;;;;4997897;28;20427;-68
2023/04/18 03:50:31;;;;;;;18.90;12.30;;;7.50;1.00;;;;;;4997759;28;20041;-67
2023/04/18 03:52:57;;;;;;;16.20;11.02;;;7.40;1.00;;;;;;4998113;28;20038;-67
2023/04/18 03:55:24;;;;;;;16.98;11.85;;;7.40;1.00;;;;;;4997703;28;20038;-67
2023/04/18 03:57:50;;;;;;;13.63;10.65;;;7.40;1.00;;;;;;4998012;28;20360;-67
2023/04/18 04:00:16;;;;;;;19.27;11.90;;;7.50;1.00;;;;;;4997670;28;20034;-68
2023/04/18 04:02:41;;;;;;;15.05;10.73;;;7.50;1.00;;;;;;4997282;28;20148;-67
2023/04/18 04:05:07;;;;;;;18.00;12.18;;;7.50;1.00;;;;;;4997994;28;20097;-67
2023/04/18 04:07:33;;;;;;;17.15;12.23;;;7.40;1.00;;;;;;4997629;28;20054;-67
2023/04/18 04:09:58;;;;;;;15.98;11.40;;;7.40;1.00;;;;;;4997569;28;20503;-67
2023/04/18 04:12:24;;;;;;;18.27;12.52;;;7.40;1.00;;;;;;4997783;28;20092;-67
2023/04/18 04:14:50;;;;;;;17.80;12.02;;;7.40;1.00;;;;;;4997474;28;20030;-68
2023/04/18 04:17:16;;;;;;;17.50;12.65;;;7.40;1.00;;;;;;4997678;28;20033;-67
2023/04/18 04:19:41;;;;;;;16.75;12.27;;;7.40;1.00;;;;;;4997687;28;20029;-68
2023/04/18 04:22:07;;;;;;;17.30;11.93;;;7.40;1.00;;;;;;4997452;28;20491;-68
2023/04/18 04:24:34;;;;;;;17.58;12.35;;;7.50;1.00;;;;;;4997430;28;20038;-67
2023/04/18 04:27:00;;;;;;;17.38;11.65;;;7.40;1.00;;;;;;4997015;28;20412;-67
2023/04/18 04:29:27;;;;;;;17.20;12.52;;;7.40;1.00;;;;;;4996640;28;20033;-67
2023/04/18 04:31:53;;;;;;;17.73;13.07;;;7.40;1.00;;;;;;4997520;28;20038;-67
2023/04/18 04:34:19;;;;;;;20.13;12.65;;;7.40;1.00;;;;;;4997351;28;20045;-68
2023/04/18 04:36:45;;;;;;;17.85;11.95;;;7.40;1.00;;;;;;4997442;28;20133;-68
2023/04/18 04:39:11;;;;;;;19.42;12.93;;;7.50;1.00;;;;;;4997419;28;20023;-67
2023/04/18 04:41:38;;;;;;;19.02;12.23;;;7.40;1.00;;;;;;4996851;28;20068;-67
2023/04/18 04:44:04;;;;;;;19.25;12.77;;;7.50;1.00;;;;;;4996794;28;20066;-70
2023/04/18 04:46:30;;;;;;;17.45;12.88;;;7.50;1.00;;;;;;4997219;28;20050;-68
2023/04/18 04:48:56;;;;;;;19.52;12.95;;;7.50;1.00;;;;;;4996277;28;20068;-68
2023/04/18 04:51:22;;;;;;;19.33;13.73;;;7.50;1.00;;;;;;4997070;28;20034;-67
2023/04/18 04:53:47;;;;;;;21.58;13.43;;;7.50;1.00;;;;;;4996830;28;20389;-68
2023/04/18 04:56:13;;;;;;;22.52;13.48;;;7.60;1.00;;;;;;4996765;28;20105;-67
2023/04/18 04:58:38;;;;;;;20.52;14.02;;;7.60;1.00;;;;;;4996963;28;20034;-68
2023/04/18 05:01:06;;;;;;;21.20;14.77;;;7.60;1.00;;;;;;4996373;28;20034;-67
2023/04/18 05:03:32;;;;;;;19.23;14.15;;;7.60;1.00;;;;;;4996034;28;20048;-67
2023/04/18 05:05:58;;;;;;;21.83;14.30;;;7.60;1.00;;;;;;4996477;28;20117;-67
2023/04/18 05:08:25;;;;;;;21.27;14.75;;;7.70;1.00;;;;;;4996608;28;20088;-68
2023/04/18 05:10:50;;;;;;;23.92;14.55;;;7.70;1.00;;;;;;4996482;28;20033;-67
2023/04/18 05:13:16;;;;;;;21.65;14.10;;;7.70;1.00;;;;;;4996228;28;20030;-68
2023/04/18 05:15:41;;;;;;;22.45;14.98;;;7.70;1.00;;;;;;4996393;28;20031;-68
2023/04/18 05:18:07;;;;;;;23.35;16.25;;;7.70;1.00;;;;;;4996151;28;20041;-68
2023/04/18 05:20:32;;;;;;;20.38;14.00;;;7.70;1.00;;;;;;4995935;28;20026;-69
2023/04/18 05:22:58;;;;;;;25.33;15.88;;;7.70;1.00;;;;;;4996496;28;20038;-68
2023/04/18 05:25:24;;;;;;;22.67;15.75;;;7.70;1.00;;;;;;4995841;28;20100;-68
2023/04/18 05:27:49;;;;;;;26.73;16.67;;;7.70;1.00;;;;;;4996019;28;20026;-68
2023/04/18 05:30:15;;;;;;;28.30;15.50;;;7.80;1.00;;;;;;4996480;28;20034;-68
2023/04/18 05:32:41;;;;;;;22.05;15.93;;;7.70;1.00;;;;;;4996211;28;20032;-68
2023/04/18 05:35:07;;;;;;;21.92;16.00;;;7.80;1.00;;;;;;4996030;28;20373;-68
2023/04/18 05:37:33;;;;;;;26.40;16.65;;;7.70;1.00;;;;;;4995054;28;20025;-68
2023/04/18 05:39:58;;;;;;;23.90;16.23;;;7.70;1.00;;;;;;4995987;28;20026;-68
2023/04/18 05:42:24;;;;;;;28.63;17.70;;;7.70;1.00;;;;;;4995834;28;20026;-68
2023/04/18 05:44:49;;;;;;;22.30;15.18;;;7.70;1.10;;;;;;4995480;28;20065;-68
2023/04/18 05:47:15;;;;;;;24.48;16.75;;;7.70;1.00;;;;;;4996053;28;20026;-68
2023/04/18 05:49:41;;;;;;;27.38;17.38;;;7.70;2.50;;;;;;4995428;28;20029;-68
2023/04/18 05:52:06;;;;;;;28.40;17.10;;;7.70;5.50;;;;;;4995536;28;20053;-69
2023/04/18 05:54:32;;;;;;;24.48;16.88;;;7.70;7.80;;;;;;4995517;28;20495;-69
2023/04/18 05:56:57;;;;;;;29.05;18.42;;;7.80;16.10;;;;;;4995566;28;20031;-68
2023/04/18 05:59:23;;;;;;;27.38;18.35;;;7.80;8.40;;;;;;4995045;28;20036;-68
2023/04/18 06:01:48;;;;;;;25.15;16.48;;;7.80;6.20;;;;;;4995741;28;20038;-68
2023/04/18 06:04:15;;;;;;;25.75;17.65;;;7.80;6.30;;;;;;4994342;28;20046;-68
2023/04/18 06:06:41;;;;;;;25.00;17.55;;;7.80;3.70;;;;;;4995126;28;20393;-68
2023/04/18 06:09:06;;;;;;;27.25;17.88;;;7.80;7.80;;;;;;4994230;28;20027;-68
2023/04/18 06:11:34;;;;;;;28.02;17.58;;;7.80;7.80;;;;;;4995276;28;20030;-68
2023/04/18 06:14:00;;;;;;;24.90;17.30;;;7.80;10.80;;;;;;4995388;28;20030;-68
2023/04/18 06:16:25;;;;;;;25.50;17.42;;;7.80;11.10;;;;;;4995055;28;20072;-68
2023/04/18 06:18:51;;;;;;;26.42;18.08;;;7.80;7.60;;;;;;4994781;28;20080;-68
2023/04/18 06:21:16;;;;;;;27.73;18.50;;;7.80;5.60;;;;;;4994513;28;20027;-68
2023/04/18 06:23:42;;;;;;;28.27;18.05;;;7.90;11.70;;;;;;4995037;28;20122;-68
2023/04/18 06:26:08;;;;;;;28.70;17.73;;;8.00;3.80;;;;;;4994813;28;20030;-68
2023/04/18 06:28:33;;;;;;;26.42;17.90;;;8.00;7.80;;;;;;4994309;28;20157;-68
2023/04/18 06:30:59;;;;;;;29.27;17.70;;;8.00;1.00;;;;;;4994794;28;20372;-69
2023/04/18 06:33:24;;;;;;;29.17;17.73;;;7.90;3.30;;;;;;4994995;28;20030;-68
2023/04/18 06:35:50;;;;;;;29.30;18.15;;;7.90;2.80;;;;;;4994550;28;20576;-68
2023/04/18 06:38:16;;;;;;;29.63;18.88;;;7.90;6.00;;;;;;4994569;28;20065;-68
2023/04/18 06:40:41;;;;;;;27.90;18.85;;;7.90;7.90;;;;;;4994571;28;20089;-68
2023/04/18 06:43:07;;;;;;;27.35;17.58;;;8.00;5.80;;;;;;5004599;28;20030;-67
2023/04/18 06:45:32;;;;;;;27.17;17.17;;;8.00;8.30;;;;;;5013281;28;20041;-67
2023/04/18 06:47:59;;;;;;;28.15;17.98;;;8.00;3.70;;;;;;5013324;28;20064;-67
2023/04/18 06:50:25;;;;;;;25.15;17.20;;;8.00;2.20;;;;;;5012691;28;20021;-68
2023/04/18 06:52:51;;;;;;;25.75;17.60;;;8.00;1.00;;;;;;4997315;28;20080;-67
2023/04/18 06:55:16;;;;;;;26.70;17.02;;;8.10;1.00;;;;;;5011988;28;20391;-70
2023/04/18 06:57:42;;;;;;;27.23;17.48;;;8.10;3.10;;;;;;5012766;28;20034;-68
2023/04/18 07:00:09;;;;;;;26.13;17.08;;;8.10;1.00;;;;;;5012797;28;20045;-68
2023/04/18 07:02:36;;;;;;;27.65;17.00;;;8.20;1.00;;;;;;5007461;28;20405;-68
2023/04/18 07:05:02;;;;;;;25.98;16.85;;;8.10;1.00;;;;;;5011919;28;20412;-69
2023/04/18 07:07:28;;;;;;;27.90;16.67;;;8.20;1.00;;;;;;5011724;28;20033;-68
2023/04/18 07:09:54;;;;;;;21.73;15.25;;;8.20;1.00;;;;;;5012805;28;20464;-69
2023/04/18 07:12:20;;;;;;;25.75;16.45;;;8.20;1.00;;;;;;5012107;28;20022;-68
2023/04/18 07:14:45;;;;;;;24.33;16.60;;;8.20;1.00;;;;;;5009437;28;20112;-68
2023/04/18 07:17:11;;;;;;;27.33;18.27;;;8.30;1.00;;;;;;5004211;28;20053;-68
2023/04/18 07:19:36;;;;;;;26.58;17.98;;;8.40;1.00;;;;;;5015509;28;20065;-68
2023/04/18 07:22:02;;;;;;;26.85;18.88;;;8.20;1.00;;;;;;5017969;28;20112;-68
2023/04/18 07:24:27;;;;;;;29.83;19.42;;;8.30;1.00;;;;;;5017388;28;20072;-67
2023/04/18 07:26:53;;;;;;;28.73;17.80;;;8.40;1.00;;;;;;5015568;28;20057;-68
2023/04/18 07:29:19;;;;;;;30.02;19.67;;;8.30;1.00;;;;;;5017742;28;20125;-68
2023/04/18 07:31:45;;;;;;;29.52;19.75;;;8.40;1.00;;;;;;5018097;28;20033;-68
2023/04/18 07:34:12;;;;;;;26.60;18.35;;;8.40;1.00;;;;;;5018162;28;20030;-68
2023/04/18 07:36:39;;;;;;;29.98;19.30;;;8.50;1.00;;;;;;5017728;28;20032;-68
2023/04/18 07:39:05;;;;;;;25.52;18.25;;;8.50;1.00;;;;;;5016292;28;20112;-68
2023/04/18 07:41:31;;;;;;;26.85;17.88;;;8.70;1.00;;;;;;5012899;28;20125;-68
2023/04/18 07:43:56;;;;;;;27.70;18.75;;;8.70;1.00;;;;;;5016778;28;20037;-68
2023/04/18 07:46:22;;;;;;;25.98;17.42;;;8.70;1.00;;;;;;5017578;28;20025;-68
2023/04/18 07:48:47;;;;;;;26.33;17.58;;;8.70;1.00;;;;;;5016326;28;20392;-69
2023/04/18 07:51:13;;;;;;;28.17;17.73;;;8.70;1.00;;;;;;5016630;28;20038;-68
2023/04/18 07:53:39;;;;;;;26.70;17.08;;;8.70;1.00;;;;;;5013335;28;20034;-68
2023/04/18 07:56:05;;;;;;;27.92;17.55;;;8.70;1.00;;;;;;5017406;28;20487;-68
2023/04/18 07:58:33;;;;;;;25.15;17.23;;;8.70;1.00;;;;;;5017729;28;20033;-68
2023/04/18 08:00:59;;;;;;;26.48;17.73;;;8.80;1.00;;;;;;5017482;28;20089;-68
2023/04/18 08:03:26;;;;;;;27.65;17.25;;;8.80;1.00;;;;;;5015961;28;20060;-69
2023/04/18 08:05:51;;;;;;;27.52;16.58;;;8.70;1.00;;;;;;5016749;28;20419;-68
2023/04/18 08:08:17;;;;;;;26.40;17.05;;;8.70;1.00;;;;;;5014370;28;20088;-68
2023/04/18 08:10:43;;;;;;;27.83;17.58;;;8.80;1.00;;;;;;5016623;28;20030;-69
2023/04/18 08:13:08;;;;;;;28.00;17.33;;;8.90;1.00;;;;;;5017068;28;20387;-68
2023/04/18 08:15:34;;;;;;;26.90;15.75;;;9.00;1.00;;;;;;5017160;28;20030;-68
2023/04/18 08:18:00;;;;;;;26.90;17.25;;;9.00;1.00;;;;;;5016831;28;20036;-68
2023/04/18 08:20:26;;;;;;;26.05;16.92;;;9.00;1.00;;;;;;5016421;28;20029;-68
2023/04/18 08:22:52;;;;;;;25.40;16.73;;;9.10;1.00;;;;;;5015803;28;20104;-68
2023/04/18 08:25:17;;;;;;;29.02;17.92;;;9.10;1.00;;;;;;5016109;28;20026;-69
2023/04/18 08:27:43;;;;;;;27.42;16.95;;;9.30;1.00;;;;;;5016191;28;20021;-68
2023/04/18 08:30:09;;;;;;;34.35;17.02;;;9.40;1.00;;;;;;5015531;28;20497;-68
2023/04/18 08:32:35;;;;;;;26.25;16.80;;;9.40;1.00;;;;;;5016116;28;20026;-68
2023/04/18 08:35:02;;;;;;;26.55;16.20;;;9.30;1.00;;;;;;5015036;28;20104;-69
2023/04/18 08:37:29;;;;;;;25.08;17.30;;;9.50;1.00;;;;;;5015205;28;20025;-68
2023/04/18 08:39:54;;;;;;;26.85;16.90;;;9.90;1.00;;;;;;5013546;28;20034;-69
2023/04/18 08:42:21;;;;;;;26.13;16.77;;;10.20;1.00;;;;;;5011825;28;20040;-69
2023/04/18 08:44:47;;;;;;;26.58;16.80;;;10.20;1.00;;;;;;5010391;28;20120;-69
2023/04/18 08:47:13;;;;;;;26.33;17.25;;;10.20;1.00;;;;;;5012189;28;20216;-68
2023/04/18 08:49:39;;;;;;;29.45;18.35;;;10.10;1.00;;;;;;5013606;28;20464;-69
2023/04/18 08:52:12;;;;;;;29.58;18.80;;;10.20;1.00;;;;;;5013658;28;20036;-68
2023/04/18 08:54:40;;;;;;;28.07;17.50;;;10.50;1.00;;;;;;5015142;28;20112;-68
2023/04/18 08:57:08;;;;;;;30.98;18.95;;;10.70;99.90;;;;;;5015094;28;20029;-68
2023/04/18 08:59:35;;;;;;;28.98;17.98;;;10.80;99.90;;;;;;5015116;28;20479;-68
2023/04/18 09:02:03;;;;;;;26.67;17.25;;;11.00;99.90;;;;;;5013523;28;20044;-68
2023/04/18 09:04:47;;;;;;;25.58;17.08;;;11.00;99.90;;;;;;5013355;28;20052;-68
2023/04/18 09:07:15;;;;;;;26.23;16.80;;;11.00;99.90;;;;;;5013937;28;20037;-68
2023/04/18 09:09:57;;;;;;;26.98;17.08;;;11.00;99.90;;;;;;5013842;28;20030;-68
2023/04/18 09:12:25;;;;;;;25.00;17.40;;;11.60;99.90;;;;;;5014103;28;20112;-68
2023/04/18 09:14:56;;;;;;;23.52;16.13;;;12.00;9.90;;;;;;5014226;28;20037;-67
2023/04/18 09:17:42;;;;;;;22.75;15.48;;;12.50;1.00;;;;;;5014267;28;20026;-68
2023/04/18 09:20:09;;;;;;;24.42;16.88;;;11.70;1.00;;;;;;5016011;28;20065;-67
2023/04/18 09:22:51;;;;;;;26.25;17.25;;;10.80;99.90;;;;;;5010920;28;20033;-67
2023/04/18 09:25:33;;;;;;;27.92;18.67;;;10.40;99.90;;;;;;4999243;28;20472;-68
2023/04/18 09:28:01;;;;;;;28.77;18.90;;;10.60;1.00;;;;;;5016552;28;20053;-67
2023/04/18 09:30:33;;;;;;;29.33;19.20;;;10.80;99.90;;;;;;5035068;28;20104;-67
2023/04/18 09:33:00;;;;;;;27.85;19.30;;;10.90;99.90;;;;;;5029550;28;20028;-67
2023/04/18 09:35:25;;;;;;;31.60;18.70;;;10.70;99.90;;;;;;5014287;28;20080;-68
2023/04/18 09:37:51;;;;;;;30.20;19.85;;;10.80;99.90;;;;;;5014611;28;20480;-67
2023/04/18 09:40:18;;;;;;;30.85;20.83;;;10.60;1.00;;;;;;5014283;28;20026;-68
2023/04/18 09:42:44;;;;;;;32.15;20.33;;;10.70;99.90;;;;;;5013708;28;20507;-68
2023/04/18 09:45:11;;;;;;;30.50;19.95;;;10.60;99.90;;;;;;5015031;28;20025;-68
2023/04/18 09:47:38;;;;;;;33.13;21.67;;;10.50;1.00;;;;;;5015108;28;20506;-67
2023/04/18 09:50:05;;;;;;;34.83;22.40;;;10.40;1.00;;;;;;5015300;28;20018;-68
2023/04/18 09:52:34;;;;;;;36.78;22.67;;;10.30;1.00;;;;;;5014467;28;20111;-67
2023/04/18 09:55:02;;;;;;;35.67;22.52;;;10.30;1.00;;;;;;5014781;28;20038;-67
2023/04/18 09:57:30;;;;;;;36.63;22.33;;;10.50;1.00;;;;;;5014622;28;20065;-67
2023/04/18 10:00:15;;;;;;;35.22;23.10;;;10.30;1.00;;;;;;5014513;28;20030;-67
2023/04/18 10:02:47;;;;;;;37.97;23.85;;;10.30;1.00;;;;;;5014631;28;20056;-67
2023/04/18 10:05:13;;;;;;;35.22;23.55;;;10.40;1.00;;;;;;5013751;28;20044;-67
2023/04/18 10:07:40;;;;;;;40.85;24.73;;;10.50;1.00;;;;;;5013481;28;20402;-67
2023/04/18 10:10:06;;;;;;;36.53;23.77;;;10.70;1.00;;;;;;5013647;28;20037;-67
2023/04/18 10:12:32;;;;;;;35.70;23.92;;;10.60;99.90;;;;;;5013951;28;20480;-67
2023/04/18 10:14:59;;;;;;;40.40;26.27;;;10.70;1.00;;;;;;5014458;28;20041;-67
2023/04/18 10:17:27;;;;;;;36.10;24.00;;;10.80;99.90;;;;;;5013589;28;20117;-68
2023/04/18 10:20:14;;;;;;;36.97;24.77;;;11.00;99.90;;;;;;5014756;28;20026;-67
2023/04/18 10:22:39;;;;;;;37.42;24.25;;;11.10;99.90;;;;;;5012477;28;20499;-67
2023/04/18 10:25:05;;;;;;;37.78;24.30;;;11.00;99.90;;;;;;5013081;28;20080;-67
2023/04/18 10:27:55;;;;;;;37.80;23.92;;;11.00;99.90;;;;;;5008837;28;20044;-67
2023/04/18 10:33:37;;;;;;;38.70;24.48;;;11.30;99.90;;;;;;5083740;28;20134;-67
2023/04/18 10:36:11;;;;;;;40.40;24.08;;;11.20;99.90;;;;;;5068715;28;20091;-67
2023/04/18 10:38:43;;;;;;;39.75;25.52;;;11.10;99.90;;;;;;5069448;28;20498;-67
2023/04/18 10:41:21;;;;;;;37.97;23.02;;;11.20;99.90;;;;;;5067590;28;20086;-67
2023/04/18 10:44:09;;;;;;;36.20;24.83;;;11.20;99.90;;;;;;5055568;28;20037;-67
2023/04/18 10:46:37;;;;;;;42.00;26.08;;;11.40;99.90;;;;;;5069991;28;20104;-67
2023/04/18 10:49:23;;;;;;;35.25;23.73;;;11.60;99.90;;;;;;5070680;28;20040;-67
2023/04/18 10:51:52;;;;;;;34.00;23.40;;;11.60;99.90;;;;;;5065012;28;20029;-66
2023/04/18 10:57:18;;;;;;;33.53;23.58;;;11.60;99.90;;;;;;5090758;28;20403;-67
2023/04/18 10:59:48;;;;;;;36.33;22.80;;;11.30;99.90;;;;;;5091570;28;20032;-67
2023/04/18 11:02:31;;;;;;;33.10;22.35;;;11.30;99.90;;;;;;5089899;28;20133;-67
2023/04/18 11:04:58;;;;;;;33.27;22.97;;;11.40;99.90;;;;;;5091182;28;20028;-67
2023/04/18 11:07:45;;;;;;;36.05;22.77;;;11.50;99.90;;;;;;5091734;28;20346;-67
2023/04/18 11:10:11;;;;;;;31.23;21.38;;;11.80;99.90;;;;;;5089653;28;20107;-67
2023/04/18 11:12:39;;;;;;;30.40;22.40;;;11.80;99.90;;;;;;5090947;28;20406;-67
2023/04/18 11:15:22;;;;;;;32.83;21.67;;;12.00;99.90;;;;;;5090145;28;20111;-67
2023/04/18 11:18:03;;;;;;;39.85;26.20;;;12.00;1.00;;;;;;5087645;28;20046;-67
2023/04/18 11:20:37;;;;;;;31.48;22.35;;;11.90;54.80;;;;;;5085860;28;20050;-67
2023/04/18 11:23:02;;;;;;;33.70;23.23;;;11.70;92.90;;;;;;5089935;28;20370;-67
2023/04/18 11:25:30;;;;;;;31.08;22.17;;;11.60;99.90;;;;;;5080825;28;20021;-68
2023/04/18 11:27:58;;;;;;;34.45;23.40;;;12.10;99.90;;;;;;5082982;28;20539;-67
2023/04/18 11:30:24;;;;;;;32.60;23.02;;;12.10;1.00;;;;;;5081218;28;20111;-67
2023/04/18 11:32:50;;;;;;;36.55;23.45;;;12.00;1.00;;;;;;5084218;28;20494;-67
2023/04/18 11:35:17;;;;;;;30.52;22.23;;;11.70;33.10;;;;;;5085997;28;20037;-67
2023/04/18 11:37:44;;;;;;;28.40;21.17;;;11.90;54.80;;;;;;5081266;28;20053;-67
2023/04/18 11:40:12;;;;;;;33.90;23.25;;;12.20;1.00;;;;;;5080610;28;20036;-67
2023/04/18 11:42:39;;;;;;;35.08;23.80;;;12.00;1.00;;;;;;5070182;28;20017;-67
2023/04/18 11:45:11;;;;;;;34.42;23.75;;;11.90;1.00;;;;;;5070135;28;20139;-67
2023/04/18 11:47:36;;;;;;;38.30;23.83;;;11.70;1.00;;;;;;5080822;28;20024;-67
2023/04/18 11:50:04;;;;;;;36.05;23.27;;;11.70;1.30;;;;;;5089793;28;20375;-67
2023/04/18 11:52:31;;;;;;;33.42;23.02;;;12.00;1.00;;;;;;5088657;28;20527;-68
2023/04/18 11:55:19;;;;;;;33.70;23.27;;;12.10;1.00;;;;;;5089530;28;20029;-68
2023/04/18 11:57:51;;;;;;;32.08;22.58;;;12.00;1.00;;;;;;5089714;28;20501;-67
2023/04/18 12:00:20;;;;;;;34.25;23.15;;;12.20;1.00;;;;;;5089478;28;20056;-67
2023/04/18 12:02:47;;;;;;;33.13;23.13;;;12.00;1.00;;;;;;5089682;28;20477;-67
2023/04/18 12:05:25;;;;;;;33.50;22.65;;;12.20;1.00;;;;;;5089374;28;20093;-67
2023/04/18 12:07:51;;;;;;;31.73;22.92;;;12.50;1.00;;;;;;5077909;28;20398;-67
2023/04/18 12:10:26;;;;;;;33.53;23.10;;;13.10;99.90;;;;;;5074831;28;20090;-67
2023/04/18 12:12:54;;;;;;;33.75;23.83;;;13.00;99.90;;;;;;5076443;28;20039;-67
2023/04/18 12:15:22;;;;;;;37.20;22.67;;;13.00;99.90;;;;;;5075000;28;20115;-67
2023/04/18 12:17:51;;;;;;;31.95;22.27;;;13.20;86.80;;;;;;5074696;28;20025;-67
2023/04/18 12:20:17;;;;;;;31.75;22.27;;;13.60;1.00;;;;;;5076409;28;20374;-67
2023/04/18 12:22:46;;;;;;;32.80;22.73;;;14.20;1.00;;;;;;5075617;28;20032;-67
2023/04/18 12:25:21;;;;;;;29.42;22.60;;;14.10;1.00;;;;;;5076292;28;20055;-68
2023/04/18 12:27:55;;;;;;;31.25;22.73;;;13.90;99.90;;;;;;5076209;28;20033;-67
2023/04/18 12:30:25;;;;;;;30.88;23.17;;;13.60;33.70;;;;;;5075826;28;20519;-67
2023/04/18 12:32:53;;;;;;;29.08;23.23;;;13.00;99.90;;;;;;5068580;28;20031;-67
2023/04/18 12:35:20;;;;;;;31.65;23.17;;;13.20;99.90;;;;;;5074185;28;20035;-68
2023/04/18 12:37:47;;;;;;;29.98;23.33;;;13.50;1.00;;;;;;5067251;28;20459;-67
2023/04/18 12:40:13;;;;;;;29.38;23.10;;;13.50;99.90;;;;;;5067516;28;20052;-67
2023/04/18 12:42:40;;;;;;;29.13;22.63;;;13.50;99.90;;;;;;5073094;28;20028;-68
2023/04/18 12:45:08;;;;;;;30.23;22.80;;;13.80;99.90;;;;;;5061012;28;20025;-68
2023/04/18 12:47:34;;;;;;;27.45;21.33;;;13.80;99.90;;;;;;5070705;28;20389;-67
2023/04/18 12:50:00;;;;;;;26.67;21.60;;;14.10;96.30;;;;;;5069038;28;20032;-67